Time;durP1;ratioP1;P1;durP2;ratioP2;P2;SDS_P1;SDS_P2;PMS_P1;PMS_P2;Temp;Humidity;BMP_temperature;BMP_pressure;BME280_temperature;BME280_humidity;BME280_pressure;Samples;Min_cycle;Max_cycle;Signal;HPM_P1;HPM_P2
2022/07/24 00:00:42;;;;;;;13.00;12.00;;;23.10;99.90;;;;;;6026099;23;20971;-72
2022/07/24 00:03:09;;;;;;;12.80;11.90;;;23.10;99.90;;;;;;6025592;23;20436;-72
2022/07/24 00:05:36;;;;;;;12.97;11.90;;;23.10;99.90;;;;;;6021277;23;20986;-72
2022/07/24 00:08:04;;;;;;;13.43;12.30;;;23.10;99.90;;;;;;6026409;23;20499;-72
2022/07/24 00:10:33;;;;;;;13.30;12.30;;;23.10;99.90;;;;;;6024865;23;20440;-72
2022/07/24 00:13:00;;;;;;;13.13;12.13;;;23.10;99.90;;;;;;6024939;23;20559;-72
2022/07/24 00:15:27;;;;;;;11.83;10.93;;;23.10;99.90;;;;;;6025504;23;20460;-72
2022/07/24 00:17:54;;;;;;;11.43;10.43;;;23.10;99.90;;;;;;6023300;23;20480;-72
2022/07/24 00:20:21;;;;;;;12.43;11.53;;;23.20;99.90;;;;;;6024942;23;20432;-72
2022/07/24 00:22:48;;;;;;;11.60;10.70;;;23.20;99.90;;;;;;6024840;23;20452;-72
2022/07/24 00:25:15;;;;;;;11.20;10.50;;;23.20;99.90;;;;;;6025597;23;20460;-72
2022/07/24 00:27:44;;;;;;;11.43;10.73;;;23.30;99.90;;;;;;6030450;23;20547;-72
2022/07/24 00:30:12;;;;;;;11.17;10.47;;;23.30;99.90;;;;;;6025653;23;20475;-72
2022/07/24 00:32:39;;;;;;;12.57;11.67;;;23.30;99.90;;;;;;6028856;23;20432;-72
2022/07/24 00:35:06;;;;;;;13.40;12.30;;;23.30;99.90;;;;;;6020113;23;21060;-72
2022/07/24 00:37:34;;;;;;;11.90;11.00;;;23.40;99.90;;;;;;6029212;23;20446;-72
2022/07/24 00:40:01;;;;;;;11.90;11.00;;;23.30;99.90;;;;;;6028884;23;20440;-72
2022/07/24 00:42:28;;;;;;;13.00;12.10;;;23.30;99.90;;;;;;6022867;23;20433;-72
2022/07/24 00:44:56;;;;;;;12.00;11.00;;;23.30;99.90;;;;;;6021595;23;20492;-73
2022/07/24 00:47:24;;;;;;;10.93;10.13;;;23.30;99.90;;;;;;6025372;23;20555;-72
2022/07/24 00:49:51;;;;;;;11.90;11.10;;;23.20;99.90;;;;;;6023588;23;20445;-73
2022/07/24 00:52:18;;;;;;;12.50;11.70;;;23.20;99.90;;;;;;6021021;23;20440;-73
2022/07/24 00:54:45;;;;;;;12.07;11.17;;;23.20;99.90;;;;;;6023513;23;20502;-72
2022/07/24 00:57:12;;;;;;;10.67;9.97;;;23.10;99.90;;;;;;6021282;23;20437;-72
2022/07/24 00:59:40;;;;;;;11.73;10.93;;;23.10;99.90;;;;;;6027243;23;20452;-72
2022/07/24 01:02:08;;;;;;;11.10;10.30;;;23.10;99.90;;;;;;6019120;23;20436;-73
2022/07/24 01:04:35;;;;;;;12.67;11.67;;;23.00;99.90;;;;;;6019941;23;20456;-72
2022/07/24 01:07:02;;;;;;;12.00;11.20;;;23.00;99.90;;;;;;6021077;23;20522;-72
2022/07/24 01:09:29;;;;;;;12.50;11.70;;;23.00;99.90;;;;;;6021642;23;20437;-72
2022/07/24 01:11:57;;;;;;;12.60;11.60;;;23.00;99.90;;;;;;6024422;23;20495;-72
2022/07/24 01:14:24;;;;;;;11.60;10.80;;;22.90;99.90;;;;;;6027852;23;20490;-72
2022/07/24 01:16:51;;;;;;;12.70;11.90;;;22.90;99.90;;;;;;6023885;23;20444;-72
2022/07/24 01:19:20;;;;;;;12.70;11.70;;;22.90;99.90;;;;;;6024385;23;20928;-72
2022/07/24 01:21:50;;;;;;;14.80;13.60;;;22.90;99.90;;;;;;6022176;23;20488;-73
2022/07/24 01:24:18;;;;;;;14.67;13.57;;;22.70;99.90;;;;;;6019022;23;20457;-72
2022/07/24 01:26:45;;;;;;;14.70;13.60;;;22.50;99.90;;;;;;6023494;23;20959;-72
2022/07/24 01:29:13;;;;;;;15.00;13.70;;;22.50;99.90;;;;;;6024714;23;20436;-72
2022/07/24 01:31:40;;;;;;;16.20;14.97;;;22.40;99.90;;;;;;6024787;23;20472;-72
2022/07/24 01:34:07;;;;;;;16.87;15.57;;;22.20;99.90;;;;;;6022805;23;20456;-72
2022/07/24 01:36:34;;;;;;;17.80;16.43;;;22.00;99.90;;;;;;6023152;23;20451;-72
2022/07/24 01:39:04;;;;;;;16.67;15.50;;;21.90;99.90;;;;;;6019596;23;20441;-72
2022/07/24 01:41:31;;;;;;;17.13;15.93;;;21.90;99.90;;;;;;6022890;23;20464;-72
2022/07/24 01:43:58;;;;;;;17.40;16.00;;;21.80;99.90;;;;;;6023834;23;20471;-72
2022/07/24 01:46:26;;;;;;;16.27;15.07;;;21.80;99.90;;;;;;6024308;23;20916;-72
2022/07/24 01:48:53;;;;;;;16.70;15.30;;;21.70;99.90;;;;;;6024067;23;20522;-73
2022/07/24 01:51:20;;;;;;;17.07;15.87;;;21.60;99.90;;;;;;6026087;23;20468;-72
2022/07/24 01:53:47;;;;;;;17.20;15.90;;;21.50;99.90;;;;;;6024410;23;20531;-72
2022/07/24 01:56:15;;;;;;;17.23;15.93;;;21.50;99.90;;;;;;6028076;23;20444;-72
2022/07/24 01:58:42;;;;;;;16.80;15.60;;;21.40;99.90;;;;;;6027116;23;20476;-73
2022/07/24 02:01:09;;;;;;;17.27;16.03;;;21.40;99.90;;;;;;6020296;23;20441;-72
2022/07/24 02:03:36;;;;;;;16.83;15.50;;;21.40;99.90;;;;;;6025611;23;20464;-73
2022/07/24 02:06:04;;;;;;;17.43;16.33;;;21.30;99.90;;;;;;6024951;23;20451;-73
2022/07/24 02:08:31;;;;;;;16.63;15.43;;;21.30;99.90;;;;;;6025937;23;20479;-73
2022/07/24 02:10:58;;;;;;;17.20;16.00;;;20.90;99.90;;;;;;6022304;23;20444;-73
2022/07/24 02:13:26;;;;;;;18.13;16.83;;;21.10;99.90;;;;;;6025722;23;20524;-72
2022/07/24 02:15:53;;;;;;;20.10;18.70;;;21.00;99.90;;;;;;6028008;23;20524;-72
2022/07/24 02:18:20;;;;;;;18.43;17.10;;;20.90;99.90;;;;;;6024116;23;20928;-72
2022/07/24 02:20:47;;;;;;;18.30;17.00;;;20.80;99.90;;;;;;6026902;23;20437;-73
2022/07/24 02:23:17;;;;;;;17.17;15.87;;;20.70;99.90;;;;;;6020501;23;20456;-72
2022/07/24 02:25:45;;;;;;;18.60;17.30;;;20.60;99.90;;;;;;6028190;23;20433;-72
2022/07/24 02:28:13;;;;;;;18.53;17.23;;;20.50;99.90;;;;;;6023317;23;20476;-73
2022/07/24 02:30:41;;;;;;;18.30;16.87;;;20.50;99.90;;;;;;6025464;23;20436;-71
2022/07/24 02:33:08;;;;;;;17.63;16.30;;;20.40;99.90;;;;;;6019307;23;20504;-73
2022/07/24 02:35:36;;;;;;;18.20;16.90;;;20.50;99.90;;;;;;6022995;23;20483;-73
2022/07/24 02:38:04;;;;;;;17.70;16.50;;;20.50;99.90;;;;;;6019232;23;20798;-71
2022/07/24 02:40:32;;;;;;;18.07;16.57;;;20.50;99.90;;;;;;6026517;23;20446;-71
2022/07/24 02:42:59;;;;;;;18.77;17.27;;;20.50;99.90;;;;;;6025119;23;20483;-70
2022/07/24 02:45:26;;;;;;;17.57;16.17;;;20.50;99.90;;;;;;6025847;23;20487;-70
2022/07/24 02:47:56;;;;;;;17.37;16.07;;;20.40;99.90;;;;;;6022950;23;20542;-73
2022/07/24 02:50:25;;;;;;;17.80;16.60;;;20.30;99.90;;;;;;6022678;23;20466;-73
2022/07/24 02:52:52;;;;;;;18.73;17.10;;;20.30;99.90;;;;;;6022662;23;20456;-73
2022/07/24 02:55:19;;;;;;;18.33;16.93;;;20.20;99.90;;;;;;6023890;23;21185;-73
2022/07/24 02:57:46;;;;;;;18.53;17.13;;;20.20;99.90;;;;;;6026113;23;20445;-71
2022/07/24 03:00:16;;;;;;;18.67;17.47;;;20.20;99.90;;;;;;6023728;23;20773;-71
2022/07/24 03:02:45;;;;;;;19.10;17.70;;;20.20;99.90;;;;;;6023637;23;20514;-71
2022/07/24 03:05:13;;;;;;;18.53;17.23;;;20.10;99.90;;;;;;6023519;23;20910;-73
2022/07/24 03:07:41;;;;;;;19.10;17.70;;;20.10;99.90;;;;;;6025366;23;20963;-73
2022/07/24 03:10:10;;;;;;;17.20;15.90;;;20.10;99.90;;;;;;6020827;23;20464;-73
2022/07/24 03:12:37;;;;;;;17.67;16.37;;;20.00;99.90;;;;;;6021720;23;20456;-71
2022/07/24 03:15:05;;;;;;;18.80;17.30;;;20.00;99.90;;;;;;6018627;23;20437;-71
2022/07/24 03:17:32;;;;;;;17.73;16.33;;;20.00;99.90;;;;;;6018059;23;20444;-70
2022/07/24 03:19:59;;;;;;;17.50;16.30;;;19.90;99.90;;;;;;6021968;23;20495;-71
2022/07/24 03:22:27;;;;;;;19.50;18.10;;;20.00;99.90;;;;;;6024618;23;20467;-71
2022/07/24 03:24:54;;;;;;;19.03;17.63;;;19.90;99.90;;;;;;6020714;23;20432;-70
2022/07/24 03:27:22;;;;;;;18.60;17.20;;;19.90;99.90;;;;;;6024559;23;20440;-71
2022/07/24 03:29:49;;;;;;;17.70;16.47;;;19.90;99.90;;;;;;6022614;23;20449;-71
2022/07/24 03:32:16;;;;;;;18.80;17.47;;;19.90;99.90;;;;;;6020837;23;20862;-71
2022/07/24 03:34:43;;;;;;;19.73;18.23;;;19.90;99.90;;;;;;6028947;23;20436;-71
2022/07/24 03:37:10;;;;;;;19.10;17.80;;;19.90;99.90;;;;;;6022612;23;20441;-70
2022/07/24 03:39:38;;;;;;;19.40;17.87;;;19.90;99.90;;;;;;6023907;23;20523;-70
2022/07/24 03:42:05;;;;;;;18.27;16.97;;;19.90;99.90;;;;;;6020160;23;21067;-73
2022/07/24 03:44:32;;;;;;;18.27;17.00;;;19.90;99.90;;;;;;6026833;23;20436;-73
2022/07/24 03:46:59;;;;;;;19.20;17.90;;;19.90;99.90;;;;;;6022161;23;20903;-74
2022/07/24 03:49:26;;;;;;;19.20;17.83;;;19.90;99.90;;;;;;6024232;23;20471;-73
2022/07/24 03:51:53;;;;;;;19.30;18.00;;;19.80;99.90;;;;;;6023416;23;20535;-73
2022/07/24 03:54:21;;;;;;;19.00;17.60;;;19.90;99.90;;;;;;6023710;23;20428;-73
2022/07/24 03:56:50;;;;;;;18.90;17.47;;;19.80;99.90;;;;;;6021471;23;20547;-73
2022/07/24 03:59:18;;;;;;;19.30;17.90;;;19.80;99.90;;;;;;6020416;23;20874;-73
2022/07/24 04:01:45;;;;;;;20.20;18.77;;;19.90;99.90;;;;;;6022869;23;20515;-73
2022/07/24 04:04:12;;;;;;;20.53;18.80;;;19.80;99.90;;;;;;6029146;23;20479;-73
2022/07/24 04:06:40;;;;;;;18.77;17.30;;;19.80;99.90;;;;;;6022846;23;20463;-73
2022/07/24 04:09:08;;;;;;;19.50;18.00;;;19.90;99.90;;;;;;6023879;23;20551;-73
2022/07/24 04:11:36;;;;;;;19.67;17.97;;;19.90;99.90;;;;;;6023175;23;20890;-72
2022/07/24 04:14:04;;;;;;;18.90;17.50;;;19.90;99.90;;;;;;6020854;23;20436;-73
2022/07/24 04:16:32;;;;;;;19.00;17.37;;;19.80;99.90;;;;;;6028175;23;20975;-73
2022/07/24 04:18:59;;;;;;;19.27;17.87;;;19.80;99.90;;;;;;6025423;23;20446;-73
2022/07/24 04:21:26;;;;;;;19.00;17.60;;;19.70;99.90;;;;;;6017480;23;20541;-73
2022/07/24 04:23:53;;;;;;;19.20;17.60;;;19.70;99.90;;;;;;6026410;23;20504;-73
2022/07/24 04:26:20;;;;;;;20.20;18.70;;;19.70;99.90;;;;;;6021366;23;20475;-70
2022/07/24 04:28:48;;;;;;;19.80;18.40;;;19.70;99.90;;;;;;6021922;23;20468;-70
2022/07/24 04:31:16;;;;;;;18.40;17.00;;;19.70;99.90;;;;;;6018855;23;20515;-71
2022/07/24 04:33:43;;;;;;;18.03;16.73;;;19.70;99.90;;;;;;6029411;23;20464;-70
2022/07/24 04:36:10;;;;;;;18.73;17.33;;;19.60;99.90;;;;;;6024457;23;20885;-73
2022/07/24 04:38:37;;;;;;;18.97;17.57;;;19.60;99.90;;;;;;6025436;23;20900;-73
2022/07/24 04:41:05;;;;;;;19.07;17.63;;;19.70;99.90;;;;;;6025417;23;20456;-71
2022/07/24 04:43:32;;;;;;;20.17;18.57;;;19.70;99.90;;;;;;6020941;23;21391;-72
2022/07/24 04:46:00;;;;;;;19.10;17.67;;;19.70;99.90;;;;;;6023690;23;20440;-72
2022/07/24 04:48:28;;;;;;;18.10;16.77;;;19.80;99.90;;;;;;6025956;23;20471;-71
2022/07/24 04:50:55;;;;;;;19.77;18.27;;;19.80;99.90;;;;;;6026301;23;20989;-71
2022/07/24 04:53:23;;;;;;;17.67;16.47;;;19.90;99.90;;;;;;6022613;23;20491;-72
2022/07/24 04:55:50;;;;;;;18.27;16.87;;;19.90;99.90;;;;;;6029554;23;20484;-72
2022/07/24 04:58:17;;;;;;;19.27;17.77;;;20.00;99.90;;;;;;6023956;23;20448;-72
2022/07/24 05:00:44;;;;;;;18.83;17.27;;;20.00;99.90;;;;;;6024748;23;20456;-72
2022/07/24 05:03:11;;;;;;;17.20;16.00;;;20.10;99.90;;;;;;6024210;23;20444;-72
2022/07/24 05:05:39;;;;;;;18.50;17.13;;;20.20;99.90;;;;;;6026238;23;20440;-72
2022/07/24 05:08:06;;;;;;;18.40;16.97;;;20.30;99.90;;;;;;6025152;23;20471;-72
2022/07/24 05:10:33;;;;;;;18.30;16.90;;;20.30;99.90;;;;;;6027477;23;20863;-72
2022/07/24 05:13:00;;;;;;;18.53;17.10;;;20.40;99.90;;;;;;6024562;23;20479;-72
2022/07/24 05:15:27;;;;;;;18.83;17.30;;;20.50;99.90;;;;;;6023733;23;20492;-72
2022/07/24 05:17:54;;;;;;;17.97;16.67;;;20.50;99.90;;;;;;6023191;23;20440;-72
2022/07/24 05:20:21;;;;;;;19.00;17.60;;;20.40;99.90;;;;;;6021415;23;21000;-72
2022/07/24 05:22:50;;;;;;;19.80;18.30;;;20.40;99.90;;;;;;6021324;23;22130;-72
2022/07/24 05:25:17;;;;;;;18.70;17.40;;;20.40;99.90;;;;;;6029063;23;20779;-72
2022/07/24 05:27:44;;;;;;;18.70;17.20;;;20.50;99.90;;;;;;6028018;23;20471;-72
2022/07/24 05:30:12;;;;;;;18.30;17.00;;;20.50;99.90;;;;;;6019041;23;21028;-72
2022/07/24 05:32:39;;;;;;;18.60;17.30;;;20.50;99.90;;;;;;6027802;23;20436;-73
2022/07/24 05:35:07;;;;;;;18.93;17.37;;;20.50;99.90;;;;;;6021382;23;20498;-72
2022/07/24 05:37:34;;;;;;;17.60;16.30;;;20.50;99.90;;;;;;6018831;23;20444;-73
2022/07/24 05:40:03;;;;;;;18.47;17.07;;;20.60;99.90;;;;;;6018443;23;20587;-72
2022/07/24 05:42:30;;;;;;;18.27;16.97;;;20.60;99.90;;;;;;6020582;23;20436;-72
2022/07/24 05:44:57;;;;;;;17.80;16.60;;;20.60;99.90;;;;;;6018633;23;21171;-71
2022/07/24 05:47:24;;;;;;;17.93;16.70;;;20.60;99.90;;;;;;6021786;23;20437;-71
2022/07/24 05:49:51;;;;;;;18.37;17.00;;;20.50;99.90;;;;;;6021802;23;20464;-72
2022/07/24 05:52:18;;;;;;;18.00;16.60;;;20.60;99.90;;;;;;6020709;23;20464;-71
2022/07/24 05:54:45;;;;;;;19.57;18.07;;;20.70;99.90;;;;;;6019113;23;20436;-71
2022/07/24 05:57:14;;;;;;;19.07;17.63;;;20.70;99.90;;;;;;6020699;23;20441;-71
2022/07/24 05:59:41;;;;;;;19.70;18.20;;;20.80;99.90;;;;;;6018824;23;20440;-74
2022/07/24 06:02:08;;;;;;;18.47;17.07;;;20.90;99.90;;;;;;6017870;23;20443;-72
2022/07/24 06:04:35;;;;;;;18.20;16.90;;;20.90;99.90;;;;;;6020664;23;20444;-72
2022/07/24 06:07:02;;;;;;;17.53;16.17;;;21.00;99.90;;;;;;6020984;23;20487;-74
2022/07/24 06:09:30;;;;;;;17.80;16.50;;;21.10;99.90;;;;;;6020468;23;20548;-71
2022/07/24 06:11:57;;;;;;;18.97;17.57;;;21.20;99.90;;;;;;6024151;23;20441;-71
2022/07/24 06:14:26;;;;;;;17.33;16.23;;;21.30;99.90;;;;;;6022398;23;21174;-71
2022/07/24 06:16:55;;;;;;;17.17;15.97;;;21.40;99.90;;;;;;6021538;23;20437;-72
2022/07/24 06:19:22;;;;;;;18.60;17.20;;;21.50;99.90;;;;;;6019010;23;20499;-71
2022/07/24 06:21:50;;;;;;;17.43;16.13;;;21.60;99.90;;;;;;6019504;23;20472;-72
2022/07/24 06:24:17;;;;;;;17.43;16.20;;;21.70;99.90;;;;;;6025159;23;20464;-72
2022/07/24 06:26:44;;;;;;;17.33;16.13;;;21.70;99.90;;;;;;6020950;23;20437;-72
2022/07/24 06:29:11;;;;;;;17.63;16.20;;;21.80;99.90;;;;;;6022943;23;20456;-72
2022/07/24 06:31:39;;;;;;;16.20;15.00;;;21.90;99.90;;;;;;6019147;23;20440;-72
2022/07/24 06:34:06;;;;;;;16.37;15.27;;;21.90;99.90;;;;;;6021353;23;20524;-75
2022/07/24 06:36:33;;;;;;;16.90;15.60;;;22.10;99.90;;;;;;6021970;23;20484;-73
2022/07/24 06:39:00;;;;;;;16.23;15.13;;;22.20;99.90;;;;;;6016817;23;20529;-73
2022/07/24 06:41:28;;;;;;;15.30;14.20;;;22.30;99.90;;;;;;6020187;23;20441;-73
2022/07/24 06:43:55;;;;;;;15.43;14.43;;;22.40;99.90;;;;;;6019512;23;20514;-73
2022/07/24 06:46:22;;;;;;;15.70;14.40;;;22.50;99.90;;;;;;6022060;23;20523;-73
2022/07/24 06:48:50;;;;;;;15.83;14.73;;;22.60;99.90;;;;;;6019097;23;20464;-73
2022/07/24 06:51:18;;;;;;;15.13;14.07;;;22.70;99.90;;;;;;6017441;23;20839;-72
2022/07/24 06:53:46;;;;;;;15.13;13.73;;;22.90;99.90;;;;;;6021950;23;20514;-72
2022/07/24 06:56:14;;;;;;;13.07;12.17;;;23.00;99.90;;;;;;6017071;23;20469;-73
2022/07/24 06:58:41;;;;;;;13.10;12.10;;;23.30;99.90;;;;;;6017828;23;20472;-73
2022/07/24 07:01:08;;;;;;;12.70;11.80;;;23.30;99.90;;;;;;6019975;23;20441;-73
2022/07/24 07:03:35;;;;;;;12.23;11.27;;;23.50;99.90;;;;;;6021131;23;20448;-73
2022/07/24 07:06:04;;;;;;;13.07;12.17;;;23.70;99.90;;;;;;6019845;23;20494;-73
2022/07/24 07:08:31;;;;;;;12.10;11.30;;;23.90;99.90;;;;;;6017381;23;20519;-73
2022/07/24 07:10:58;;;;;;;11.37;10.67;;;24.10;99.90;;;;;;6021517;23;20448;-73
2022/07/24 07:13:25;;;;;;;10.57;9.87;;;24.30;99.90;;;;;;6015249;23;20498;-72
2022/07/24 07:15:53;;;;;;;11.10;10.40;;;24.40;99.90;;;;;;6020017;23;21196;-79
2022/07/24 07:18:20;;;;;;;10.70;9.90;;;24.70;99.90;;;;;;6021340;23;20951;-79
2022/07/24 07:20:47;;;;;;;10.43;9.70;;;24.70;99.90;;;;;;6017814;23;20440;-73
2022/07/24 07:23:18;;;;;;;9.90;9.20;;;24.80;99.90;;;;;;6021672;23;20444;-73
2022/07/24 07:25:46;;;;;;;10.67;9.97;;;25.00;99.90;;;;;;6018432;23;20484;-71
2022/07/24 07:28:13;;;;;;;10.20;9.50;;;25.20;99.90;;;;;;6017970;23;20444;-71
2022/07/24 07:30:40;;;;;;;9.37;8.67;;;25.40;99.90;;;;;;6015723;23;20472;-72
2022/07/24 07:33:07;;;;;;;9.33;8.63;;;25.60;99.90;;;;;;6021169;23;20469;-71
2022/07/24 07:35:34;;;;;;;9.83;9.03;;;25.90;99.90;;;;;;6021443;23;20531;-71
2022/07/24 07:38:01;;;;;;;8.67;8.10;;;26.30;99.90;;;;;;6021391;23;20962;-71
2022/07/24 07:40:30;;;;;;;9.33;8.70;;;26.40;99.90;;;;;;6017013;23;20451;-71
2022/07/24 07:42:57;;;;;;;8.20;7.70;;;26.70;99.90;;;;;;6020030;23;20436;-71
2022/07/24 07:45:24;;;;;;;8.00;7.50;;;27.00;99.90;;;;;;6018733;23;20546;-71
2022/07/24 07:47:51;;;;;;;8.30;7.70;;;27.30;99.90;;;;;;6020362;23;20432;-71
2022/07/24 07:50:18;;;;;;;9.00;8.40;;;27.50;99.90;;;;;;6021281;23;20468;-71
2022/07/24 07:52:45;;;;;;;9.10;8.50;;;27.60;99.90;;;;;;6022074;23;20439;-71
2022/07/24 07:55:12;;;;;;;8.43;7.73;;;27.60;99.90;;;;;;6024396;23;20479;-77
2022/07/24 07:57:43;;;;;;;8.30;7.70;;;27.60;99.90;;;;;;6022661;23;20431;-70
2022/07/24 08:00:11;;;;;;;8.57;7.97;;;27.80;99.50;;;;;;6020569;23;20543;-75
2022/07/24 08:02:39;;;;;;;8.77;8.17;;;27.90;99.40;;;;;;6017446;23;20448;-74
2022/07/24 08:05:07;;;;;;;8.50;8.00;;;28.20;98.60;;;;;;6020478;23;20510;-76
2022/07/24 08:07:34;;;;;;;8.47;7.87;;;28.40;98.30;;;;;;6018657;23;20446;-74
2022/07/24 08:10:01;;;;;;;8.30;7.63;;;28.60;98.20;;;;;;6019692;23;20467;-74
2022/07/24 08:12:30;;;;;;;9.27;8.57;;;29.00;98.20;;;;;;6019754;23;20442;-74
2022/07/24 08:14:58;;;;;;;8.00;7.40;;;29.50;97.20;;;;;;6021866;23;20456;-74
2022/07/24 08:17:26;;;;;;;8.17;7.67;;;30.00;97.40;;;;;;6021742;23;20559;-74
2022/07/24 08:19:53;;;;;;;9.07;8.40;;;30.50;95.80;;;;;;6020647;23;20510;-74
2022/07/24 08:22:20;;;;;;;9.63;8.93;;;30.50;94.10;;;;;;6018118;23;20476;-75
2022/07/24 08:24:47;;;;;;;9.13;8.47;;;30.40;94.20;;;;;;6020211;23;20469;-75
2022/07/24 08:27:14;;;;;;;8.67;8.07;;;30.40;94.20;;;;;;6017832;23;20433;-75
2022/07/24 08:29:41;;;;;;;8.63;7.97;;;30.70;94.30;;;;;;6019629;23;20468;-74
2022/07/24 08:32:10;;;;;;;8.60;8.00;;;30.90;93.40;;;;;;6023705;23;20441;-74
2022/07/24 08:34:37;;;;;;;9.17;8.53;;;31.00;92.40;;;;;;6021900;23;20456;-74
2022/07/24 08:37:04;;;;;;;7.93;7.43;;;31.00;91.70;;;;;;6020998;23;20515;-74
2022/07/24 08:39:31;;;;;;;8.20;7.70;;;30.90;92.00;;;;;;6027103;23;20444;-74
2022/07/24 08:41:58;;;;;;;8.60;8.10;;;31.00;91.10;;;;;;6021192;23;20487;-74
2022/07/24 08:44:25;;;;;;;8.77;8.17;;;30.70;90.90;;;;;;6022528;23;20512;-74
2022/07/24 08:46:55;;;;;;;8.83;8.13;;;30.40;91.40;;;;;;6021241;23;20526;-74
2022/07/24 08:49:27;;;;;;;9.10;8.50;;;30.40;91.20;;;;;;6022283;23;20557;-74
2022/07/24 08:51:56;;;;;;;9.10;8.50;;;30.40;91.40;;;;;;6021726;23;20662;-74
2022/07/24 08:54:24;;;;;;;9.00;8.40;;;30.40;91.80;;;;;;6016241;23;20468;-74
2022/07/24 08:56:51;;;;;;;7.97;7.47;;;30.50;92.00;;;;;;6020681;23;20448;-74
2022/07/24 08:59:20;;;;;;;8.80;8.30;;;30.90;91.20;;;;;;6021031;23;20847;-74
2022/07/24 09:01:48;;;;;;;8.07;7.50;;;31.20;88.80;;;;;;6017267;23;21001;-74
2022/07/24 09:04:36;;;;;;;8.40;7.80;;;31.20;89.40;;;;;;6016384;23;20515;-74
2022/07/24 09:07:12;;;;;;;9.30;8.60;;;31.40;87.50;;;;;;6019547;23;20451;-75
2022/07/24 09:09:42;;;;;;;8.70;8.10;;;31.40;86.50;;;;;;6021596;23;20460;-74
2022/07/24 09:12:12;;;;;;;8.93;8.43;;;31.20;87.10;;;;;;6021386;23;20440;-75
2022/07/24 09:14:47;;;;;;;8.13;7.53;;;31.30;86.50;;;;;;6016126;23;20463;-75
2022/07/24 09:17:23;;;;;;;7.97;7.37;;;31.70;85.70;;;;;;6021457;23;20934;-74
2022/07/24 09:19:58;;;;;;;9.13;8.60;;;31.90;81.60;;;;;;6020613;23;20440;-74
2022/07/24 09:22:37;;;;;;;8.63;8.03;;;32.10;81.90;;;;;;6022158;23;20495;-74
2022/07/24 09:25:18;;;;;;;8.37;7.87;;;32.20;81.30;;;;;;6020181;23;20483;-74
2022/07/24 09:27:50;;;;;;;8.17;7.70;;;32.00;80.40;;;;;;6021927;23;20469;-74
2022/07/24 09:30:34;;;;;;;7.73;7.23;;;32.20;80.90;;;;;;6025341;23;20966;-74
2022/07/24 09:33:08;;;;;;;8.93;8.33;;;32.60;81.00;;;;;;6018340;23;20479;-75
2022/07/24 09:35:41;;;;;;;8.23;7.63;;;33.10;79.70;;;;;;6021898;23;20486;-75
2022/07/24 09:38:18;;;;;;;8.77;8.17;;;33.60;78.30;;;;;;6017759;23;20532;-75
2022/07/24 09:40:51;;;;;;;8.40;7.90;;;34.00;75.70;;;;;;6022422;23;20444;-74
2022/07/24 09:43:24;;;;;;;8.77;8.17;;;34.50;75.70;;;;;;6021119;23;20445;-74
2022/07/24 09:46:01;;;;;;;8.60;8.07;;;35.00;73.30;;;;;;6022647;23;20495;-74
2022/07/24 09:48:38;;;;;;;8.27;7.67;;;35.30;72.30;;;;;;6018168;23;20472;-74
2022/07/24 09:51:14;;;;;;;7.20;6.70;;;35.50;70.40;;;;;;6023278;23;20504;-74
2022/07/24 09:53:43;;;;;;;7.17;6.77;;;35.80;69.60;;;;;;6018599;23;21060;-74
2022/07/24 09:56:13;;;;;;;7.50;7.00;;;36.00;66.20;;;;;;6021383;23;20448;-74
2022/07/24 09:58:41;;;;;;;7.70;7.20;;;35.90;64.70;;;;;;6019934;23;20420;-74
2022/07/24 10:01:11;;;;;;;8.23;7.63;;;35.80;65.30;;;;;;6022569;23;20459;-73
2022/07/24 10:03:43;;;;;;;8.10;7.60;;;35.60;64.20;;;;;;6019513;23;20453;-74
2022/07/24 10:06:20;;;;;;;7.60;7.10;;;35.50;64.00;;;;;;6020270;23;20468;-74
2022/07/24 10:08:51;;;;;;;7.10;6.70;;;35.00;64.70;;;;;;6018762;23;20920;-74
2022/07/24 10:11:18;;;;;;;8.03;7.53;;;34.70;65.60;;;;;;6016581;23;20966;-74
2022/07/24 10:13:46;;;;;;;7.97;7.47;;;34.40;66.50;;;;;;6021525;23;20484;-74
2022/07/24 10:16:44;;;;;;;8.00;7.50;;;34.40;68.00;;;;;;6022920;23;20807;-75
2022/07/24 10:19:22;;;;;;;8.20;7.60;;;34.60;65.10;;;;;;6019254;23;20487;-75
2022/07/24 10:22:27;;;;;;;7.90;7.40;;;34.90;66.30;;;;;;6022203;23;20457;-75
2022/07/24 10:25:02;;;;;;;7.87;7.37;;;35.50;64.60;;;;;;5946972;23;20476;-75
2022/07/24 10:27:36;;;;;;;8.30;7.70;;;36.10;62.20;;;;;;6019013;23;20444;-74
2022/07/24 10:30:09;;;;;;;7.53;7.03;;;35.70;60.70;;;;;;6020529;23;20483;-75
2022/07/24 10:32:41;;;;;;;7.80;7.27;;;35.60;60.60;;;;;;6020598;23;20467;-74
2022/07/24 10:35:17;;;;;;;7.97;7.47;;;35.30;63.10;;;;;;6019072;23;20500;-75
2022/07/24 10:37:58;;;;;;;7.73;7.07;;;35.50;62.80;;;;;;6022269;23;20772;-75
2022/07/24 10:40:42;;;;;;;7.27;6.87;;;35.60;61.50;;;;;;6019267;23;20463;-75
2022/07/24 10:43:14;;;;;;;6.73;6.33;;;35.50;61.70;;;;;;6018791;23;20572;-75
2022/07/24 10:45:46;;;;;;;8.17;7.57;;;35.60;61.80;;;;;;6019151;23;21004;-75
2022/07/24 10:48:39;;;;;;;7.03;6.60;;;35.50;60.70;;;;;;6020274;23;20443;-75
2022/07/24 10:51:10;;;;;;;7.67;7.17;;;35.40;60.20;;;;;;6016051;23;20547;-74
2022/07/24 10:54:20;;;;;;;7.00;6.60;;;35.20;60.60;;;;;;6016843;23;20462;-75
2022/07/24 10:56:50;;;;;;;6.77;6.37;;;35.50;60.90;;;;;;6006573;23;20494;-74
2022/07/24 10:59:34;;;;;;;6.60;6.20;;;35.80;60.00;;;;;;6020388;23;20516;-74
2022/07/24 11:02:29;;;;;;;7.00;6.57;;;36.30;60.00;;;;;;6018992;23;20552;-75
2022/07/24 11:05:33;;;;;;;7.13;6.63;;;36.80;58.60;;;;;;6020735;23;20455;-75
2022/07/24 11:08:33;;;;;;;5.93;5.63;;;37.20;56.10;;;;;;6017938;23;20463;-76
2022/07/24 11:11:09;;;;;;;7.00;6.60;;;37.60;56.80;;;;;;6018368;23;20479;-73
2022/07/24 11:14:01;;;;;;;7.00;6.50;;;37.60;56.00;;;;;;6019096;23;20429;-74
2022/07/24 11:16:41;;;;;;;7.30;6.90;;;37.40;55.40;;;;;;6023648;23;20517;-75
2022/07/24 11:19:33;;;;;;;7.57;7.17;;;36.80;55.90;;;;;;6022541;23;20436;-75
2022/07/24 11:22:13;;;;;;;7.00;6.50;;;35.90;56.50;;;;;;6020304;23;20550;-73
2022/07/24 11:25:10;;;;;;;7.10;6.50;;;35.70;57.40;;;;;;6018845;23;20439;-73
2022/07/24 11:27:50;;;;;;;7.80;7.30;;;35.50;58.70;;;;;;6019748;23;20860;-73
2022/07/24 11:30:18;;;;;;;7.70;7.27;;;35.80;57.70;;;;;;6023286;23;20456;-73
2022/07/24 11:32:46;;;;;;;8.07;7.57;;;36.10;57.00;;;;;;6019535;23;20472;-74
2022/07/24 11:35:13;;;;;;;7.97;7.37;;;36.00;57.10;;;;;;6019137;23;20946;-73
2022/07/24 11:37:42;;;;;;;7.30;6.90;;;35.40;57.50;;;;;;6017139;23;21171;-73
2022/07/24 11:40:14;;;;;;;7.70;7.20;;;35.30;57.80;;;;;;6021410;23;21094;-73
2022/07/24 11:42:41;;;;;;;7.47;7.03;;;35.40;58.50;;;;;;6023162;23;20452;-73
2022/07/24 11:45:11;;;;;;;7.70;7.20;;;35.70;56.80;;;;;;6022995;23;20425;-73
2022/07/24 11:47:38;;;;;;;8.40;7.80;;;35.70;57.00;;;;;;6024461;23;20514;-73
2022/07/24 11:50:07;;;;;;;6.90;6.40;;;35.60;56.90;;;;;;6021378;23;20490;-73
2022/07/24 11:52:36;;;;;;;8.40;7.80;;;35.60;56.90;;;;;;6019073;23;20754;-73
2022/07/24 11:55:08;;;;;;;7.57;7.07;;;35.20;56.60;;;;;;6021871;23;20447;-75
2022/07/24 11:57:37;;;;;;;7.60;7.10;;;34.90;57.90;;;;;;6019289;23;20441;-73
2022/07/24 12:00:08;;;;;;;7.87;7.17;;;34.80;57.80;;;;;;6021177;23;20979;-73
2022/07/24 12:02:37;;;;;;;7.80;7.30;;;35.20;57.80;;;;;;6022048;23;20437;-73
2022/07/24 12:05:05;;;;;;;6.90;6.50;;;35.30;57.30;;;;;;6021840;23;20443;-73
2022/07/24 12:07:32;;;;;;;8.00;7.50;;;35.30;57.00;;;;;;6022054;23;20804;-73
2022/07/24 12:10:00;;;;;;;7.47;7.07;;;35.50;58.00;;;;;;6021039;23;20456;-73
2022/07/24 12:12:29;;;;;;;7.63;7.13;;;35.80;56.90;;;;;;6017352;23;20538;-73
2022/07/24 12:15:03;;;;;;;7.57;7.10;;;36.10;57.10;;;;;;6023428;23;20998;-73
2022/07/24 12:17:31;;;;;;;7.00;6.60;;;36.30;55.10;;;;;;6020487;23;20444;-73
2022/07/24 12:20:05;;;;;;;7.47;6.90;;;36.10;56.40;;;;;;6022021;23;20518;-73
2022/07/24 12:22:33;;;;;;;7.17;6.67;;;36.40;55.60;;;;;;6020548;23;20826;-73
2022/07/24 12:25:00;;;;;;;6.60;6.20;;;36.80;55.70;;;;;;6020541;23;20437;-73
2022/07/24 12:27:40;;;;;;;7.30;6.83;;;37.10;54.30;;;;;;6019835;23;20887;-73
2022/07/24 12:30:19;;;;;;;6.77;6.40;;;37.40;54.90;;;;;;6020011;23;20522;-73
2022/07/24 12:33:01;;;;;;;6.80;6.40;;;37.60;54.20;;;;;;6020904;23;20451;-73
2022/07/24 12:35:32;;;;;;;7.60;7.00;;;38.00;53.30;;;;;;6022759;23;20468;-73
2022/07/24 12:38:02;;;;;;;7.13;6.73;;;38.10;52.50;;;;;;6021757;23;20461;-74
2022/07/24 12:40:32;;;;;;;7.80;7.20;;;37.90;52.70;;;;;;6021057;23;20518;-74
2022/07/24 12:43:02;;;;;;;8.60;7.90;;;37.90;52.30;;;;;;6020890;23;20437;-74
2022/07/24 12:45:29;;;;;;;7.23;6.83;;;37.70;51.90;;;;;;6019143;23;20437;-74
2022/07/24 12:48:12;;;;;;;6.77;6.37;;;37.50;53.10;;;;;;6020620;23;20487;-74